Time;durP1;ratioP1;P1;durP2;ratioP2;P2;SDS_P1;SDS_P2;PMS_P1;PMS_P2;Temp;Humidity;BMP_temperature;BMP_pressure;BME280_temperature;BME280_humidity;BME280_pressure;Samples;Min_cycle;Max_cycle;Signal;HPM_P1;HPM_P2
2021/12/05 00:19:17;;;;;;;20.63;8.82;;;3.80;99.90;;;;;;4971729;28;20058;-76
2021/12/05 00:24:14;;;;;;;19.00;8.02;;;3.80;99.90;;;;;;4973053;28;20550;-77
2021/12/05 00:26:45;;;;;;;18.35;7.10;;;3.80;99.90;;;;;;4978482;28;20042;-76
2021/12/05 00:32:01;;;;;;;13.90;6.95;;;3.80;99.90;;;;;;4988104;28;20043;-75
2021/12/05 00:40:46;;;;;;;16.48;6.32;;;3.80;99.90;;;;;;4927885;29;20579;-76
2021/12/05 00:43:44;;;;;;;17.33;7.03;;;3.80;99.90;;;;;;4965088;28;20095;-77
2021/12/05 00:46:20;;;;;;;18.77;6.75;;;3.80;99.90;;;;;;4976841;28;20047;-76
2021/12/05 00:56:52;;;;;;;12.85;6.60;;;3.80;99.90;;;;;;4976458;28;20441;-76
2021/12/05 01:02:17;;;;;;;14.90;6.80;;;3.90;99.90;;;;;;4970721;28;20181;-77
2021/12/05 01:10:07;;;;;;;13.25;7.07;;;3.80;99.90;;;;;;4990483;28;20046;-77
2021/12/05 01:13:06;;;;;;;15.02;6.78;;;3.80;99.90;;;;;;4974758;28;20050;-76
2021/12/05 01:15:31;;;;;;;14.38;7.13;;;3.80;99.90;;;;;;4970758;28;20097;-77
2021/12/05 01:20:27;;;;;;;15.27;7.78;;;3.80;99.90;;;;;;4987021;28;20077;-76
2021/12/05 01:23:24;;;;;;;15.70;7.68;;;3.70;99.90;;;;;;4990265;28;20054;-77
2021/12/05 01:25:45;;;;;;;12.02;7.53;;;3.80;99.90;;;;;;4982574;28;20058;-76
2021/12/05 01:28:23;;;;;;;17.73;8.15;;;3.80;99.90;;;;;;4970799;28;20060;-77
2021/12/05 01:36:41;;;;;;;17.13;8.40;;;3.70;99.90;;;;;;4970817;28;20039;-77
2021/12/05 01:41:45;;;;;;;13.77;7.93;;;3.80;99.90;;;;;;4981523;28;20046;-76
2021/12/05 01:47:16;;;;;;;16.52;8.63;;;3.70;99.90;;;;;;4981224;28;20051;-77
2021/12/05 01:58:13;;;;;;;15.65;8.40;;;3.70;99.90;;;;;;4983273;28;20078;-76
2021/12/05 02:01:15;;;;;;;15.93;8.35;;;3.70;99.90;;;;;;4969695;28;20070;-75
2021/12/05 02:12:10;;;;;;;18.35;8.68;;;3.70;99.90;;;;;;4973061;28;20101;-76
2021/12/05 02:15:28;;;;;;;19.87;9.40;;;3.60;99.90;;;;;;4956713;28;20047;-77
2021/12/05 02:31:43;;;;;;;13.43;7.70;;;3.70;99.90;;;;;;4909574;29;20071;-76
2021/12/05 02:42:14;;;;;;;15.52;8.30;;;3.70;99.90;;;;;;4972085;28;20049;-77
2021/12/05 02:44:43;;;;;;;14.52;8.27;;;3.70;99.90;;;;;;4972154;28;20046;-77
2021/12/05 02:47:15;;;;;;;16.40;8.40;;;3.70;99.90;;;;;;4983732;28;20500;-76
2021/12/05 02:49:43;;;;;;;17.95;8.27;;;3.70;99.90;;;;;;4972555;28;20046;-76
2021/12/05 02:52:18;;;;;;;14.75;8.48;;;3.70;99.90;;;;;;4971882;28;20073;-77
2021/12/05 02:54:49;;;;;;;20.02;8.35;;;3.70;99.90;;;;;;4949297;28;1010184;-76
2021/12/05 02:57:19;;;;;;;17.90;8.02;;;3.70;99.90;;;;;;4983307;28;20389;-77
2021/12/05 02:59:50;;;;;;;15.52;8.32;;;3.70;99.90;;;;;;4984879;28;20125;-74
2021/12/05 03:02:18;;;;;;;18.42;8.90;;;3.70;99.90;;;;;;4992511;28;20054;-77
2021/12/05 03:04:47;;;;;;;16.50;8.68;;;3.70;99.90;;;;;;4975993;28;20038;-76
2021/12/05 03:07:17;;;;;;;14.43;8.13;;;3.70;99.90;;;;;;4975376;28;20038;-76
2021/12/05 03:09:43;;;;;;;22.42;9.45;;;3.70;99.90;;;;;;4963478;28;20044;-77
2021/12/05 03:12:16;;;;;;;18.70;9.10;;;3.70;99.90;;;;;;4975233;28;20165;-77
2021/12/05 03:14:43;;;;;;;18.63;8.70;;;3.70;99.90;;;;;;4987441;28;20050;-77
2021/12/05 03:17:08;;;;;;;16.38;8.38;;;3.70;99.90;;;;;;4974108;28;20031;-76
2021/12/05 03:19:34;;;;;;;17.98;8.95;;;3.70;99.90;;;;;;4957038;28;20034;-76
2021/12/05 03:22:00;;;;;;;20.70;8.80;;;3.70;99.90;;;;;;4974224;28;20043;-76
2021/12/05 03:24:26;;;;;;;16.02;8.02;;;3.70;99.90;;;;;;4973830;28;20034;-75
2021/12/05 03:26:53;;;;;;;15.13;9.30;;;3.70;99.90;;;;;;4981277;28;20103;-76
2021/12/05 03:29:20;;;;;;;18.50;9.23;;;3.70;99.90;;;;;;4983619;28;20048;-75
2021/12/05 03:31:47;;;;;;;17.30;9.70;;;3.60;99.90;;;;;;4978013;28;20630;-75
2021/12/05 03:34:16;;;;;;;17.08;9.55;;;3.60;99.90;;;;;;4979887;28;20043;-76
2021/12/05 03:36:46;;;;;;;18.38;9.50;;;3.60;99.90;;;;;;4976064;28;20081;-76
2021/12/05 03:39:12;;;;;;;17.05;9.65;;;3.60;99.90;;;;;;4985368;28;20073;-77
2021/12/05 03:41:39;;;;;;;19.65;10.05;;;3.60;99.90;;;;;;4980076;28;20043;-75
2021/12/05 03:44:06;;;;;;;23.02;9.75;;;3.60;99.90;;;;;;5002428;28;20034;-76
2021/12/05 03:46:33;;;;;;;17.45;10.32;;;3.60;99.90;;;;;;4982038;28;20035;-76
2021/12/05 03:49:04;;;;;;;19.52;9.88;;;3.60;99.90;;;;;;4974083;28;20035;-77
2021/12/05 03:51:35;;;;;;;22.90;10.25;;;3.50;99.90;;;;;;4972679;28;20425;-77
2021/12/05 03:54:01;;;;;;;23.05;10.80;;;3.50;99.90;;;;;;4999518;28;20382;-76
2021/12/05 03:56:27;;;;;;;27.98;11.23;;;3.60;99.90;;;;;;4983457;28;20039;-77
2021/12/05 03:58:54;;;;;;;21.55;11.25;;;3.50;99.90;;;;;;4990908;28;20514;-76
2021/12/05 04:01:24;;;;;;;22.48;10.93;;;3.50;99.90;;;;;;4981220;28;20039;-76
2021/12/05 04:03:50;;;;;;;23.98;11.80;;;3.50;99.90;;;;;;4976743;28;20052;-76
2021/12/05 04:06:19;;;;;;;22.75;11.98;;;3.50;99.90;;;;;;4975752;28;20066;-77
2021/12/05 04:08:44;;;;;;;27.85;11.98;;;3.50;99.90;;;;;;4974266;28;20058;-77
2021/12/05 04:11:14;;;;;;;28.50;12.82;;;3.40;99.90;;;;;;4984567;28;20038;-77
2021/12/05 04:13:41;;;;;;;22.20;12.52;;;3.40;99.90;;;;;;4971652;28;20046;-75
2021/12/05 04:16:08;;;;;;;24.42;12.27;;;3.40;99.90;;;;;;4980314;28;20120;-76
2021/12/05 04:18:34;;;;;;;27.75;12.55;;;3.40;99.90;;;;;;4990389;28;20504;-75
2021/12/05 04:21:01;;;;;;;25.15;13.57;;;3.40;99.90;;;;;;4981008;28;20035;-77
2021/12/05 04:23:27;;;;;;;28.35;13.93;;;3.40;99.90;;;;;;4957164;28;20039;-77
2021/12/05 04:25:53;;;;;;;25.60;13.77;;;3.40;99.90;;;;;;4976572;28;20042;-77
2021/12/05 04:28:22;;;;;;;26.85;14.18;;;3.40;99.90;;;;;;4979452;28;20380;-77
2021/12/05 04:30:48;;;;;;;23.45;14.27;;;3.40;99.90;;;;;;4975424;28;20093;-76
2021/12/05 04:33:14;;;;;;;27.85;13.50;;;3.30;99.90;;;;;;4961800;28;20035;-76
2021/12/05 04:35:39;;;;;;;29.35;14.70;;;3.40;99.90;;;;;;4985729;28;20057;-76
2021/12/05 04:38:05;;;;;;;22.65;13.30;;;3.40;99.90;;;;;;4979467;28;20053;-77
2021/12/05 04:40:33;;;;;;;27.75;14.10;;;3.40;99.90;;;;;;4977445;28;20108;-77
2021/12/05 04:43:03;;;;;;;30.40;15.15;;;3.40;99.90;;;;;;4989497;28;20377;-76
2021/12/05 04:45:31;;;;;;;27.27;14.50;;;3.40;99.90;;;;;;4990055;28;20474;-77
2021/12/05 04:47:57;;;;;;;26.83;15.07;;;3.40;99.90;;;;;;4990752;28;20092;-76
2021/12/05 04:50:23;;;;;;;28.25;15.05;;;3.30;99.90;;;;;;4975193;28;20516;-76
2021/12/05 04:52:50;;;;;;;31.45;15.10;;;3.30;99.90;;;;;;4982818;28;20400;-77
2021/12/05 04:55:17;;;;;;;31.20;15.60;;;3.40;99.90;;;;;;4971890;28;20038;-76
2021/12/05 04:57:43;;;;;;;31.10;14.85;;;3.40;99.90;;;;;;4984659;28;20046;-77
2021/12/05 05:00:19;;;;;;;29.58;15.00;;;3.40;99.90;;;;;;4960271;28;20054;-76
2021/12/05 05:02:45;;;;;;;26.10;14.82;;;3.40;99.90;;;;;;4986623;28;20038;-77
2021/12/05 05:05:12;;;;;;;26.23;14.70;;;3.40;99.90;;;;;;4986214;28;20492;-77
2021/12/05 05:07:39;;;;;;;31.00;14.55;;;3.30;99.90;;;;;;4970989;28;20047;-77
2021/12/05 05:10:11;;;;;;;32.05;15.07;;;3.40;99.90;;;;;;4977159;28;20049;-76
2021/12/05 05:12:36;;;;;;;30.75;14.98;;;3.30;99.90;;;;;;4969566;28;20112;-76
2021/12/05 05:15:04;;;;;;;30.63;13.90;;;3.30;99.90;;;;;;4971058;28;20035;-76
2021/12/05 05:17:30;;;;;;;28.42;14.07;;;3.30;99.90;;;;;;4981475;28;20041;-76
2021/12/05 05:20:00;;;;;;;29.92;15.13;;;3.30;99.90;;;;;;4970814;28;20035;-77
2021/12/05 05:22:41;;;;;;;31.38;14.95;;;3.30;99.90;;;;;;4970470;28;20053;-77
2021/12/05 05:46:38;;;;;;;24.27;11.35;;;3.10;99.90;;;;;;4984734;28;20108;-76
2021/12/05 05:49:15;;;;;;;26.60;11.90;;;3.10;99.90;;;;;;4975505;28;20360;-76
2021/12/05 05:51:40;;;;;;;22.35;11.80;;;3.10;99.90;;;;;;4969857;28;20077;-77
2021/12/05 05:54:06;;;;;;;31.42;11.95;;;3.10;99.90;;;;;;4979390;28;20038;-77
2021/12/05 05:56:33;;;;;;;24.92;11.75;;;3.10;99.90;;;;;;4975890;28;20043;-76
2021/12/05 05:59:05;;;;;;;20.38;10.35;;;3.10;99.90;;;;;;4971846;28;20455;-77
2021/12/05 06:04:04;;;;;;;23.92;9.95;;;3.00;99.90;;;;;;4978988;28;20051;-75
2021/12/05 06:06:31;;;;;;;24.73;10.20;;;3.00;99.90;;;;;;4981726;28;20046;-76
2021/12/05 06:08:57;;;;;;;28.45;10.75;;;3.00;99.90;;;;;;4978855;28;20393;-76
2021/12/05 06:11:23;;;;;;;22.55;10.10;;;3.00;99.90;;;;;;4971900;28;20045;-76
2021/12/05 06:13:49;;;;;;;24.95;10.65;;;3.00;99.90;;;;;;4970458;28;20043;-76
2021/12/05 06:16:16;;;;;;;18.98;9.48;;;2.90;99.90;;;;;;4983651;28;20511;-76
2021/12/05 06:18:42;;;;;;;26.80;9.88;;;2.90;99.90;;;;;;4970376;28;20042;-76
2021/12/05 06:21:09;;;;;;;25.17;10.23;;;2.90;99.90;;;;;;4984302;28;20061;-77
2021/12/05 06:23:37;;;;;;;24.50;9.88;;;2.90;99.90;;;;;;4970264;28;20051;-76
2021/12/05 06:26:04;;;;;;;25.10;9.65;;;2.90;99.90;;;;;;4976937;28;20034;-76
2021/12/05 06:28:41;;;;;;;26.35;10.05;;;2.90;99.90;;;;;;4973549;28;20053;-76
2021/12/05 06:31:29;;;;;;;22.33;9.15;;;2.90;99.90;;;;;;4958920;28;20105;-76
2021/12/05 06:36:57;;;;;;;21.88;9.20;;;2.90;99.90;;;;;;4971308;28;20077;-76
2021/12/05 06:39:43;;;;;;;22.27;8.50;;;2.90;99.90;;;;;;4969315;28;20113;-75
2021/12/05 06:47:31;;;;;;;20.70;9.63;;;2.90;99.90;;;;;;4970325;28;20062;-76
2021/12/05 06:49:57;;;;;;;22.60;8.90;;;2.90;99.90;;;;;;4968229;28;20031;-76
2021/12/05 06:52:24;;;;;;;23.50;8.63;;;2.90;99.90;;;;;;4986150;28;20093;-77
2021/12/05 06:54:50;;;;;;;16.80;8.00;;;2.90;99.90;;;;;;4963046;28;20397;-76
2021/12/05 06:57:17;;;;;;;18.90;8.63;;;2.90;99.90;;;;;;4982241;28;20090;-76
2021/12/05 06:59:45;;;;;;;21.83;8.15;;;2.90;99.90;;;;;;4978724;28;20045;-76
2021/12/05 07:02:13;;;;;;;19.40;8.32;;;2.90;99.90;;;;;;4979259;28;20046;-76
2021/12/05 07:05:02;;;;;;;20.90;8.50;;;2.90;99.90;;;;;;4982590;28;20057;-77
2021/12/05 07:07:31;;;;;;;20.27;7.82;;;2.90;99.90;;;;;;4978046;28;20106;-76
2021/12/05 07:09:56;;;;;;;17.10;8.05;;;2.90;99.90;;;;;;4976432;28;20057;-76
2021/12/05 07:12:55;;;;;;;19.75;8.30;;;2.90;99.90;;;;;;4972743;28;20126;-77
2021/12/05 07:15:16;;;;;;;23.23;7.85;;;2.90;99.90;;;;;;4983684;28;20146;-76
2021/12/05 07:23:12;;;;;;;21.45;9.43;;;2.80;99.90;;;;;;4985038;28;20137;-76
2021/12/05 07:25:49;;;;;;;20.05;9.20;;;2.90;99.90;;;;;;4984169;28;20046;-77
2021/12/05 07:42:05;;;;;;;;;;;2.90;99.90;;;;;;4992420;28;20053;-76
2021/12/05 07:44:31;;;;;;;22.35;8.65;;;2.90;99.90;;;;;;4978625;28;20460;-76
2021/12/05 07:46:57;;;;;;;18.42;8.27;;;2.90;99.90;;;;;;4980268;28;20089;-77
2021/12/05 07:49:22;;;;;;;20.08;8.82;;;2.90;99.90;;;;;;4975801;28;20508;-77
2021/12/05 07:51:49;;;;;;;24.88;8.63;;;2.90;99.90;;;;;;4979814;28;20093;-76
2021/12/05 07:56:50;;;;;;;16.52;8.07;;;2.90;99.90;;;;;;4982628;28;20494;-76
2021/12/05 08:15:43;;;;;;;23.73;9.82;;;3.10;99.90;;;;;;4979556;28;20039;-76
2021/12/05 08:18:09;;;;;;;23.90;9.73;;;3.10;99.90;;;;;;4957621;28;20069;-76
2021/12/05 08:20:38;;;;;;;21.08;9.50;;;3.10;99.90;;;;;;4976031;28;20062;-76
2021/12/05 08:23:05;;;;;;;24.73;10.55;;;3.10;99.90;;;;;;4976076;28;20046;-75
2021/12/05 08:25:35;;;;;;;22.05;10.73;;;3.10;99.90;;;;;;4968881;28;20070;-76
2021/12/05 08:28:56;;;;;;;16.92;9.57;;;3.10;99.90;;;;;;4986596;28;20062;-76
2021/12/05 08:31:10;;;;;;;27.23;11.23;;;3.20;99.90;;;;;;4973254;28;20130;-76
2021/12/05 08:33:52;;;;;;;;;;;3.20;99.90;;;;;;4986524;28;20117;-76
2021/12/05 08:44:31;;;;;;;27.25;12.48;;;3.30;99.90;;;;;;4972012;28;20482;-77
2021/12/05 09:25:13;;;;;;;21.20;11.30;;;3.70;99.90;;;;;;4984075;28;20408;-77
2021/12/05 09:27:57;;;;;;;23.15;11.98;;;3.70;99.90;;;;;;4982458;28;20468;-76
2021/12/05 09:30:53;;;;;;;;;;;3.70;99.90;;;;;;4972195;28;20039;-77
2021/12/05 09:38:39;;;;;;;25.75;11.73;;;3.70;99.90;;;;;;4981672;28;20124;-77
2021/12/05 10:01:51;;;;;;;21.42;11.65;;;3.80;99.90;;;;;;4984285;28;20120;-77
2021/12/05 10:09:31;;;;;;;23.15;11.75;;;3.70;99.90;;;;;;4978748;28;20039;-77
2021/12/05 10:12:28;;;;;;;22.75;11.88;;;3.70;99.90;;;;;;4983074;28;20065;-77
2021/12/05 10:15:15;;;;;;;24.33;12.05;;;3.70;99.90;;;;;;4985903;28;20057;-77
2021/12/05 10:35:30;;;;;;;19.80;12.40;;;3.80;99.90;;;;;;4976759;28;20102;-77
2021/12/05 10:38:03;;;;;;;23.20;12.45;;;3.80;99.90;;;;;;4984209;28;20039;-77
2021/12/05 10:40:39;;;;;;;24.20;12.90;;;3.80;99.90;;;;;;4980420;28;20042;-77
2021/12/05 10:43:23;;;;;;;23.13;12.45;;;3.80;99.90;;;;;;4982308;28;20496;-76
2021/12/05 10:46:03;;;;;;;24.83;11.85;;;3.80;99.90;;;;;;5004041;28;20039;-76
2021/12/05 10:48:42;;;;;;;30.60;12.63;;;3.80;99.90;;;;;;4977818;28;20137;-76
2021/12/05 10:51:25;;;;;;;23.63;12.85;;;3.80;99.90;;;;;;4990399;28;20035;-77
2021/12/05 10:53:53;;;;;;;26.10;13.02;;;3.80;99.90;;;;;;4979408;28;20046;-77
2021/12/05 10:56:30;;;;;;;24.58;11.95;;;3.80;99.90;;;;;;4981336;28;20053;-77
2021/12/05 10:58:56;;;;;;;24.45;11.57;;;3.80;99.90;;;;;;5002414;28;20113;-77
2021/12/05 11:01:40;;;;;;;21.60;11.27;;;3.80;99.90;;;;;;4968912;28;20469;-77
2021/12/05 11:04:13;;;;;;;24.17;11.75;;;3.90;99.90;;;;;;4984908;28;20129;-77
2021/12/05 11:06:50;;;;;;;23.95;11.82;;;3.90;99.90;;;;;;4976546;28;20050;-77
2021/12/05 11:09:36;;;;;;;26.80;12.45;;;3.90;99.90;;;;;;4977771;28;20168;-77
2021/12/05 11:12:08;;;;;;;22.65;12.02;;;3.80;99.90;;;;;;4961842;28;20076;-77
2021/12/05 11:14:38;;;;;;;24.75;10.70;;;3.90;99.90;;;;;;4981721;28;20042;-77
2021/12/05 11:17:10;;;;;;;22.90;11.90;;;3.90;99.90;;;;;;4979546;28;20026;-76
2021/12/05 11:19:49;;;;;;;24.38;11.77;;;3.90;99.90;;;;;;4978754;28;20126;-76
2021/12/05 11:22:27;;;;;;;22.17;11.55;;;3.90;99.90;;;;;;4983769;28;20037;-77
2021/12/05 11:25:03;;;;;;;25.55;11.57;;;3.90;99.90;;;;;;4965749;28;20441;-77
2021/12/05 11:27:37;;;;;;;23.73;11.93;;;3.90;99.90;;;;;;4977774;28;20132;-78
2021/12/05 11:30:22;;;;;;;29.95;12.32;;;4.00;99.90;;;;;;4983717;28;20030;-80
2021/12/05 11:32:48;;;;;;;20.45;11.77;;;4.00;99.90;;;;;;4999188;28;20039;-77
2021/12/05 11:35:19;;;;;;;22.05;11.05;;;4.00;99.90;;;;;;4977058;28;20034;-76
2021/12/05 11:38:04;;;;;;;22.20;11.15;;;4.00;99.90;;;;;;4977534;28;20419;-76
2021/12/05 11:40:50;;;;;;;24.00;13.68;;;4.00;99.90;;;;;;4984006;28;20038;-76
2021/12/05 11:43:33;;;;;;;19.75;10.90;;;4.10;99.90;;;;;;4983286;28;20098;-76
2021/12/05 11:46:18;;;;;;;23.35;11.73;;;4.10;99.90;;;;;;4990582;28;20129;-76
2021/12/05 11:49:02;;;;;;;22.45;11.43;;;4.10;99.90;;;;;;4991859;28;20038;-76
2021/12/05 11:51:53;;;;;;;20.83;11.57;;;4.20;99.90;;;;;;4992329;28;20041;-77
2021/12/05 11:54:33;;;;;;;22.38;11.18;;;4.10;99.90;;;;;;4986144;28;20030;-76
2021/12/05 11:57:02;;;;;;;27.80;11.60;;;4.20;99.90;;;;;;4982344;28;20075;-76
2021/12/05 11:59:38;;;;;;;23.20;11.57;;;4.20;99.90;;;;;;4956306;28;20078;-77
2021/12/05 12:02:17;;;;;;;23.67;12.25;;;4.20;99.90;;;;;;4955889;28;20039;-76
2021/12/05 12:05:01;;;;;;;18.33;11.15;;;4.20;99.90;;;;;;4956305;28;20035;-76
2021/12/05 12:07:38;;;;;;;19.27;11.35;;;4.30;99.90;;;;;;4972057;28;20042;-76
2021/12/05 12:10:23;;;;;;;19.40;10.70;;;4.30;99.90;;;;;;4976420;28;20505;-76
2021/12/05 12:12:51;;;;;;;21.27;11.13;;;4.40;99.90;;;;;;4975301;28;20051;-76
2021/12/05 12:15:17;;;;;;;26.65;11.55;;;4.40;99.90;;;;;;4971838;28;20039;-76
2021/12/05 12:17:46;;;;;;;21.50;12.40;;;4.40;99.90;;;;;;4971983;28;20050;-77
2021/12/05 12:20:16;;;;;;;20.35;11.40;;;4.50;99.90;;;;;;4972147;28;20069;-76
2021/12/05 12:22:42;;;;;;;23.95;12.70;;;4.50;99.90;;;;;;4955808;28;20043;-77
2021/12/05 12:25:13;;;;;;;17.45;10.23;;;4.60;99.90;;;;;;4971280;28;20047;-77
2021/12/05 12:27:42;;;;;;;18.80;10.73;;;4.70;99.90;;;;;;4978081;28;20492;-76
2021/12/05 12:30:10;;;;;;;23.02;10.52;;;4.70;99.90;;;;;;4994510;28;20034;-77
2021/12/05 12:32:42;;;;;;;17.55;10.23;;;4.70;99.90;;;;;;4979715;28;20042;-75
2021/12/05 12:35:13;;;;;;;19.38;10.90;;;4.80;99.90;;;;;;4972289;28;20531;-76
2021/12/05 12:37:56;;;;;;;17.10;10.27;;;4.80;99.90;;;;;;4990642;28;20049;-76
2021/12/05 12:40:38;;;;;;;16.25;9.75;;;4.80;99.90;;;;;;4960117;28;20050;-76
2021/12/05 12:43:06;;;;;;;18.33;9.95;;;4.90;99.90;;;;;;4986944;28;20069;-77
2021/12/05 12:45:40;;;;;;;19.23;10.48;;;4.90;99.90;;;;;;4973813;28;20121;-76
2021/12/05 12:48:12;;;;;;;18.90;10.57;;;4.90;99.90;;;;;;4989734;28;20165;-76
2021/12/05 12:50:52;;;;;;;18.52;10.07;;;5.00;99.90;;;;;;4987344;28;20081;-77
2021/12/05 12:53:29;;;;;;;15.85;10.48;;;5.00;99.90;;;;;;4974283;28;20070;-76
2021/12/05 12:56:10;;;;;;;19.92;10.45;;;5.00;99.90;;;;;;4982971;28;20519;-76
2021/12/05 12:58:42;;;;;;;21.70;10.68;;;5.00;99.90;;;;;;4989220;28;20113;-77
2021/12/05 13:01:31;;;;;;;20.00;11.75;;;5.00;99.90;;;;;;4971138;28;20038;-77
2021/12/05 13:10:11;;;;;;;21.77;11.05;;;5.00;99.90;;;;;;4981445;28;20077;-76
2021/12/05 13:12:47;;;;;;;17.27;10.20;;;5.00;99.90;;;;;;4980106;28;20034;-76
2021/12/05 13:15:33;;;;;;;17.65;10.65;;;5.00;99.90;;;;;;4979763;28;20045;-76
2021/12/05 13:18:04;;;;;;;19.98;10.90;;;5.00;99.90;;;;;;4984454;28;20049;-76
2021/12/05 13:20:42;;;;;;;20.83;11.65;;;5.00;99.90;;;;;;4980122;28;20831;-76
2021/12/05 13:23:18;;;;;;;18.85;10.73;;;5.00;99.90;;;;;;4981285;28;20035;-76
2021/12/05 13:26:23;;;;;;;20.17;10.73;;;5.10;99.90;;;;;;4978953;28;20054;-77
2021/12/05 13:29:10;;;;;;;19.65;10.63;;;5.10;99.90;;;;;;4980552;28;20046;-76
2021/12/05 13:31:43;;;;;;;21.63;10.73;;;5.00;99.90;;;;;;4985497;28;20519;-76
2021/12/05 13:34:18;;;;;;;20.23;11.55;;;5.10;99.90;;;;;;5000539;28;20066;-76
2021/12/05 13:36:52;;;;;;;17.25;11.10;;;5.10;99.90;;;;;;4977605;28;20038;-76
2021/12/05 13:39:41;;;;;;;19.30;11.32;;;5.10;99.90;;;;;;4975744;28;20053;-76
2021/12/05 13:42:43;;;;;;;21.23;11.00;;;5.10;99.90;;;;;;4977860;28;20035;-76
2021/12/05 13:45:19;;;;;;;19.70;10.52;;;5.00;99.90;;;;;;4984034;28;20042;-76
2021/12/05 13:47:53;;;;;;;19.27;10.95;;;5.10;99.90;;;;;;4978392;28;20389;-77
2021/12/05 13:50:19;;;;;;;20.08;11.10;;;5.10;99.90;;;;;;4994734;28;20169;-77
2021/12/05 13:53:05;;;;;;;13.52;9.95;;;5.20;99.90;;;;;;4982269;28;20146;-77
2021/12/05 13:56:03;;;;;;;20.85;10.13;;;5.20;99.90;;;;;;5000051;28;20073;-77
2021/12/05 13:58:32;;;;;;;15.57;9.57;;;5.20;99.90;;;;;;4986078;28;20051;-76
2021/12/05 14:01:15;;;;;;;17.95;9.73;;;5.20;99.90;;;;;;5001850;28;20117;-75
2021/12/05 14:03:46;;;;;;;18.35;10.07;;;5.10;99.90;;;;;;4984093;28;20053;-75
2021/12/05 14:06:30;;;;;;;16.00;9.25;;;5.10;99.90;;;;;;4985747;28;20453;-77
2021/12/05 14:09:00;;;;;;;12.63;8.65;;;5.10;99.90;;;;;;4983167;28;20065;-76
2021/12/05 14:11:27;;;;;;;15.27;8.63;;;5.00;99.90;;;;;;4984979;28;20066;-76
2021/12/05 14:13:53;;;;;;;14.38;9.35;;;5.00;99.90;;;;;;4985532;28;20043;-76
2021/12/05 14:16:20;;;;;;;15.82;8.82;;;5.00;99.90;;;;;;4985100;28;20051;-77
2021/12/05 14:18:46;;;;;;;17.05;9.60;;;4.90;99.90;;;;;;4981698;28;20039;-76
2021/12/05 14:21:18;;;;;;;18.88;9.32;;;4.90;99.90;;;;;;5004036;28;20039;-76
2021/12/05 14:23:48;;;;;;;16.73;9.18;;;4.80;99.90;;;;;;5003511;28;20038;-76
2021/12/05 14:26:20;;;;;;;14.50;9.70;;;4.80;99.90;;;;;;5004701;28;20038;-77
2021/12/05 14:29:06;;;;;;;16.10;8.38;;;4.80;99.90;;;;;;4985096;28;20038;-77
2021/12/05 14:31:39;;;;;;;13.98;9.05;;;4.80;99.90;;;;;;4980076;28;20489;-76
2021/12/05 14:34:05;;;;;;;15.65;8.82;;;4.80;99.90;;;;;;4980026;28;20519;-77
2021/12/05 14:36:39;;;;;;;13.65;8.70;;;4.70;99.90;;;;;;4991640;28;20042;-77
2021/12/05 14:39:22;;;;;;;17.63;8.80;;;4.80;99.90;;;;;;4970740;28;20105;-77
2021/12/05 14:41:51;;;;;;;13.40;8.88;;;4.70;99.90;;;;;;4988033;28;20571;-76
2021/12/05 14:44:18;;;;;;;13.90;8.80;;;4.70;99.90;;;;;;4977378;28;20404;-76
2021/12/05 14:47:01;;;;;;;16.60;9.70;;;4.70;99.90;;;;;;4980736;28;20046;-77
2021/12/05 14:49:31;;;;;;;19.33;9.80;;;4.70;99.90;;;;;;4990112;28;20046;-76
2021/12/05 14:51:58;;;;;;;16.23;9.52;;;4.70;99.90;;;;;;4980704;28;20034;-76
2021/12/05 14:54:28;;;;;;;14.25;8.93;;;4.60;99.90;;;;;;4982658;28;20104;-77
2021/12/05 14:56:55;;;;;;;14.43;9.00;;;4.60;99.90;;;;;;4981126;28;20034;-76
2021/12/05 14:59:20;;;;;;;20.73;9.57;;;4.60;99.90;;;;;;4999130;28;20134;-77
2021/12/05 15:01:53;;;;;;;16.35;9.50;;;4.60;99.90;;;;;;4983910;28;20122;-77
2021/12/05 15:04:23;;;;;;;15.68;9.07;;;4.60;99.90;;;;;;4961822;28;20070;-76
2021/12/05 15:06:49;;;;;;;16.20;9.82;;;4.60;99.90;;;;;;4976432;28;20047;-76
2021/12/05 15:09:23;;;;;;;20.65;11.13;;;4.50;99.90;;;;;;4972486;28;20531;-77
2021/12/05 15:11:52;;;;;;;15.70;10.02;;;4.60;99.90;;;;;;4967656;28;20089;-77
2021/12/05 15:14:19;;;;;;;17.88;9.98;;;4.50;99.90;;;;;;4986326;28;20476;-77
2021/12/05 15:17:13;;;;;;;24.17;11.63;;;4.50;99.90;;;;;;4984126;28;20049;-76
2021/12/05 15:19:44;;;;;;;24.83;12.70;;;4.60;99.90;;;;;;4982395;28;20058;-77
2021/12/05 15:22:12;;;;;;;29.00;13.07;;;4.50;99.90;;;;;;5000429;28;20038;-76
2021/12/05 15:24:38;;;;;;;21.80;12.32;;;4.50;99.90;;;;;;4990613;28;20129;-76
2021/12/05 15:27:12;;;;;;;23.55;12.35;;;4.50;99.90;;;;;;4968700;28;20503;-76
2021/12/05 15:29:44;;;;;;;28.63;12.95;;;4.50;99.90;;;;;;4983219;28;20552;-77
2021/12/05 15:32:16;;;;;;;24.20;12.88;;;4.50;99.90;;;;;;4981549;28;20045;-77
2021/12/05 15:34:41;;;;;;;23.05;12.80;;;4.50;99.90;;;;;;4984083;28;20042;-77
2021/12/05 15:37:10;;;;;;;28.38;13.13;;;4.50;99.90;;;;;;4974493;28;20522;-77
2021/12/05 15:39:42;;;;;;;23.83;12.77;;;4.40;99.90;;;;;;4983535;28;20579;-78
2021/12/05 15:42:30;;;;;;;23.67;12.60;;;4.40;99.90;;;;;;4985546;28;20030;-78
2021/12/05 15:44:58;;;;;;;22.92;12.95;;;4.40;99.90;;;;;;4986729;28;20065;-77
2021/12/05 15:47:32;;;;;;;21.88;13.57;;;4.40;99.90;;;;;;4977859;28;20046;-77
2021/12/05 15:50:03;;;;;;;26.45;13.23;;;4.40;99.90;;;;;;4982136;28;20043;-78
2021/12/05 15:52:39;;;;;;;27.13;13.55;;;4.30;99.90;;;;;;4984551;28;20052;-78
2021/12/05 15:55:22;;;;;;;26.02;13.52;;;4.30;99.90;;;;;;4965860;28;20042;-77
2021/12/05 15:57:53;;;;;;;26.73;13.48;;;4.30;99.90;;;;;;4983330;28;20050;-77
2021/12/05 16:00:21;;;;;;;29.10;14.30;;;4.30;99.90;;;;;;4971510;28;20034;-76
2021/12/05 16:02:47;;;;;;;24.58;13.05;;;4.30;99.90;;;;;;4977034;28;20042;-77
2021/12/05 16:05:21;;;;;;;24.50;12.88;;;4.30;99.90;;;;;;4979520;28;20054;-76
2021/12/05 16:07:49;;;;;;;27.35;13.88;;;4.30;99.90;;;;;;4982828;28;20130;-78
2021/12/05 16:10:22;;;;;;;25.70;13.52;;;4.30;99.90;;;;;;4959499;28;20049;-77
2021/12/05 16:12:50;;;;;;;26.00;14.02;;;4.30;99.90;;;;;;4972310;28;20046;-77
2021/12/05 16:15:18;;;;;;;24.05;13.52;;;4.30;99.90;;;;;;4969942;28;20053;-76
2021/12/05 16:17:59;;;;;;;29.25;13.73;;;4.30;99.90;;;;;;4986148;28;20046;-78
2021/12/05 16:20:46;;;;;;;29.17;15.18;;;4.30;99.90;;;;;;4984743;28;20030;-77
2021/12/05 16:23:37;;;;;;;27.63;13.80;;;4.30;99.90;;;;;;4982861;28;20098;-78
2021/12/05 16:26:09;;;;;;;26.13;13.45;;;4.20;99.90;;;;;;4962822;28;20412;-77
2021/12/05 16:28:48;;;;;;;25.63;13.90;;;4.20;99.90;;;;;;4987261;28;20054;-77
2021/12/05 16:31:18;;;;;;;26.30;13.73;;;4.20;99.90;;;;;;4967679;28;20034;-77
2021/12/05 16:33:51;;;;;;;28.20;15.95;;;4.20;99.90;;;;;;4984635;28;20345;-77
2021/12/05 16:36:19;;;;;;;30.05;14.77;;;4.20;99.90;;;;;;4978188;28;20366;-77
2021/12/05 16:38:47;;;;;;;30.63;15.50;;;4.20;99.90;;;;;;4980042;28;20042;-78
2021/12/05 16:41:27;;;;;;;27.83;15.80;;;4.20;99.90;;;;;;4977291;28;20042;-78
2021/12/05 16:43:58;;;;;;;29.90;16.13;;;4.20;99.90;;;;;;4976621;28;20035;-78
2021/12/05 16:46:49;;;;;;;28.80;17.13;;;4.30;99.90;;;;;;4975823;28;20046;-77
2021/12/05 16:49:22;;;;;;;32.88;18.58;;;4.20;99.90;;;;;;4980267;28;20082;-77
2021/12/05 16:52:07;;;;;;;32.55;18.73;;;4.20;99.90;;;;;;4968671;28;20153;-77
2021/12/05 16:54:44;;;;;;;36.33;18.65;;;4.20;99.90;;;;;;4976790;28;20042;-77
2021/12/05 16:57:17;;;;;;;37.33;18.75;;;4.20;99.90;;;;;;4987113;28;20069;-77
2021/12/05 16:59:49;;;;;;;36.53;18.73;;;4.20;99.90;;;;;;4978556;28;20043;-78
2021/12/05 17:02:22;;;;;;;35.50;19.83;;;4.20;99.90;;;;;;4978311;28;20474;-78
2021/12/05 17:04:59;;;;;;;39.15;20.15;;;4.20;99.90;;;;;;4962011;28;20088;-78
2021/12/05 17:07:47;;;;;;;35.53;19.98;;;4.20;99.90;;;;;;4978838;28;20105;-77
2021/12/05 17:10:24;;;;;;;37.25;20.50;;;4.20;99.90;;;;;;4972114;28;20193;-77
2021/12/05 17:12:53;;;;;;;36.13;19.80;;;4.20;99.90;;;;;;4971470;28;20038;-76
2021/12/05 17:15:30;;;;;;;35.15;20.30;;;4.20;99.90;;;;;;4971831;28;20412;-77
2021/12/05 17:18:03;;;;;;;38.75;20.58;;;4.20;99.90;;;;;;4974816;28;20046;-78
2021/12/05 17:20:36;;;;;;;36.33;20.88;;;4.10;99.90;;;;;;4965751;28;20143;-77
2021/12/05 17:23:12;;;;;;;38.67;21.65;;;4.10;99.90;;;;;;4977207;28;20476;-77
2021/12/05 17:25:50;;;;;;;37.70;21.60;;;4.10;99.90;;;;;;4975410;28;20049;-76
2021/12/05 17:28:41;;;;;;;35.53;21.45;;;4.10;99.90;;;;;;4982405;28;20226;-77
2021/12/05 17:31:10;;;;;;;36.70;21.42;;;4.10;99.90;;;;;;4964277;28;20050;-76
2021/12/05 17:33:40;;;;;;;36.78;21.23;;;4.10;99.90;;;;;;4980118;28;20104;-77
2021/12/05 17:36:36;;;;;;;33.97;20.02;;;4.10;99.90;;;;;;4983166;28;20150;-78
2021/12/05 17:39:13;;;;;;;34.30;19.30;;;4.00;99.90;;;;;;4983477;28;20117;-77
2021/12/05 17:41:41;;;;;;;32.38;19.52;;;4.00;99.90;;;;;;4988950;28;20093;-78